Time;durP1;ratioP1;P1;durP2;ratioP2;P2;SDS_P1;SDS_P2;PMS_P1;PMS_P2;Temp;Humidity;BMP_temperature;BMP_pressure;BME280_temperature;BME280_humidity;BME280_pressure;Samples;Min_cycle;Max_cycle;Signal;HPM_P1;HPM_P2
2020/12/09 00:02:07;;;;;;;19.65;9.40;;;;;;;-6.01;62.12;100586.81;1723522;82;21096;-66
2020/12/09 00:04:35;;;;;;;18.65;10.15;;;;;;;-5.98;61.91;100586.86;1744512;82;21739;-67
2020/12/09 00:07:02;;;;;;;21.50;10.45;;;;;;;-5.99;62.00;100585.13;1733564;82;21110;-67
2020/12/09 00:09:29;;;;;;;21.55;9.45;;;;;;;-6.00;61.75;100585.97;1740819;82;21194;-67
2020/12/09 00:11:56;;;;;;;17.27;8.95;;;;;;;-6.00;61.71;100594.98;1713576;82;21186;-67
2020/12/09 00:14:24;;;;;;;17.73;8.55;;;;;;;-6.01;61.77;100581.66;1741544;82;22423;-66
2020/12/09 00:16:51;;;;;;;18.10;9.65;;;;;;;-5.97;61.45;100580.80;1742231;81;21213;-66
2020/12/09 00:19:19;;;;;;;19.23;8.98;;;;;;;-5.96;61.46;100586.00;1744437;81;21188;-66
2020/12/09 00:21:46;;;;;;;18.12;9.18;;;;;;;-5.94;61.16;100577.84;1717092;82;21171;-66
2020/12/09 00:24:13;;;;;;;21.02;9.60;;;;;;;-5.89;61.29;100576.61;1736935;82;21195;-66
2020/12/09 00:26:40;;;;;;;18.30;9.28;;;;;;;-5.90;61.36;100587.77;1744802;82;21195;-66
2020/12/09 00:29:08;;;;;;;22.37;9.13;;;;;;;-5.84;61.09;100589.55;1738757;82;21175;-66
2020/12/09 00:31:35;;;;;;;17.82;8.40;;;;;;;-5.86;61.08;100586.94;1710000;82;21320;-66
2020/12/09 00:34:02;;;;;;;20.32;8.75;;;;;;;-5.78;60.94;100585.32;1724498;82;21166;-66
2020/12/09 00:36:30;;;;;;;18.32;8.28;;;;;;;-5.77;60.73;100587.05;1714802;84;21173;-66
2020/12/09 00:38:57;;;;;;;18.30;8.50;;;;;;;-5.74;60.71;100585.34;1714840;82;21299;-66
2020/12/09 00:41:27;;;;;;;16.48;8.98;;;;;;;-5.70;60.53;100582.81;1727972;82;21174;-66
2020/12/09 00:43:56;;;;;;;17.17;7.85;;;;;;;-5.69;60.21;100578.52;1733986;82;21324;-66
2020/12/09 00:46:26;;;;;;;18.65;8.58;;;;;;;-5.63;60.28;100581.16;1723835;82;21181;-67
2020/12/09 00:48:55;;;;;;;17.12;8.25;;;;;;;-5.61;60.03;100564.86;1719865;82;21623;-67
2020/12/09 00:51:25;;;;;;;16.90;8.15;;;;;;;-5.61;60.08;100563.56;1732528;82;21232;-67
2020/12/09 00:53:54;;;;;;;12.65;7.33;;;;;;;-5.56;59.94;100566.60;1737601;82;21159;-67
2020/12/09 00:56:23;;;;;;;20.02;8.58;;;;;;;-5.56;59.99;100566.60;1736863;82;21320;-67
2020/12/09 00:58:51;;;;;;;18.60;8.78;;;;;;;-5.55;60.05;100564.47;1721454;82;21312;-67
2020/12/09 01:01:19;;;;;;;17.85;8.05;;;;;;;-5.57;59.56;100562.33;1690996;82;21801;-67
2020/12/09 01:03:49;;;;;;;16.87;7.95;;;;;;;-5.58;59.57;100564.02;1718005;82;21634;-67
2020/12/09 01:06:16;;;;;;;19.17;8.08;;;;;;;-5.51;59.55;100563.23;1714961;82;21308;-67
2020/12/09 01:08:43;;;;;;;14.87;7.65;;;;;;;-5.48;59.80;100558.09;1725337;82;21179;-67
2020/12/09 01:11:10;;;;;;;14.25;7.90;;;;;;;-5.51;59.69;100562.34;1717590;82;21281;-67
2020/12/09 01:13:37;;;;;;;14.25;7.50;;;;;;;-5.48;59.61;100554.66;1673431;84;21633;-67
2020/12/09 01:16:06;;;;;;;15.48;8.88;;;;;;;-5.49;59.57;100554.22;1734976;82;21187;-67
2020/12/09 01:18:33;;;;;;;17.60;9.10;;;;;;;-5.45;59.38;100550.80;1732293;82;21753;-66
2020/12/09 01:21:01;;;;;;;18.37;8.03;;;;;;;-5.50;59.31;100543.46;1736618;82;21528;-67
2020/12/09 01:23:28;;;;;;;15.38;7.97;;;;;;;-5.48;59.39;100541.77;1737321;82;21276;-66
2020/12/09 01:25:55;;;;;;;15.55;8.13;;;;;;;-5.48;59.16;100546.48;1730846;82;21582;-66
2020/12/09 01:28:22;;;;;;;17.80;8.78;;;;;;;-5.46;59.42;100542.22;1714830;82;21319;-66
2020/12/09 01:30:49;;;;;;;14.55;8.03;;;;;;;-5.42;59.42;100550.84;1720394;82;21190;-66
2020/12/09 01:33:17;;;;;;;15.03;7.53;;;;;;;-5.43;59.53;100546.09;1742443;82;21670;-66
2020/12/09 01:35:45;;;;;;;16.60;8.13;;;;;;;-5.40;59.45;100550.85;1747577;82;21191;-66
2020/12/09 01:38:12;;;;;;;15.32;7.75;;;;;;;-5.40;59.55;100539.25;1727757;82;21179;-66
2020/12/09 01:40:39;;;;;;;18.12;8.05;;;;;;;-5.40;59.33;100542.67;1704121;81;21621;-66
2020/12/09 01:43:06;;;;;;;13.43;7.20;;;;;;;-5.37;59.27;100548.28;1734313;82;21293;-66
2020/12/09 01:45:33;;;;;;;17.45;7.55;;;;;;;-5.33;59.48;100552.61;1744612;81;21209;-66
2020/12/09 01:48:01;;;;;;;14.68;8.00;;;;;;;-5.31;59.49;100549.63;1740587;82;21741;-66
2020/12/09 01:50:28;;;;;;;14.75;7.80;;;;;;;-5.33;59.42;100541.00;1703190;82;21156;-66
2020/12/09 01:52:55;;;;;;;15.98;8.18;;;;;;;-5.31;59.46;100543.17;1703422;82;21142;-66
2020/12/09 01:55:22;;;;;;;13.08;7.42;;;;;;;-5.25;59.58;100551.41;1745752;82;21154;-66
2020/12/09 01:57:49;;;;;;;15.58;7.60;;;;;;;-5.23;59.64;100551.85;1738156;82;21317;-66
2020/12/09 02:00:16;;;;;;;15.45;7.50;;;;;;;-5.24;59.51;100555.69;1723821;82;22174;-66
2020/12/09 02:02:43;;;;;;;14.68;7.17;;;;;;;-5.18;59.67;100548.87;1717403;83;21147;-67
2020/12/09 02:05:12;;;;;;;17.50;7.97;;;;;;;-5.14;59.41;100559.64;1725534;82;21181;-66
2020/12/09 02:07:40;;;;;;;15.85;7.83;;;;;;;-5.14;59.66;100548.04;1719094;82;21110;-67
2020/12/09 02:10:09;;;;;;;15.45;7.95;;;;;;;-5.12;59.61;100550.62;1725636;82;21638;-66
2020/12/09 02:12:40;;;;;;;15.53;7.97;;;;;;;-5.10;59.54;100557.52;1741354;82;21368;-66
2020/12/09 02:15:08;;;;;;;16.23;8.80;;;;;;;-5.09;59.67;100558.36;1736692;82;21314;-65
2020/12/09 02:17:35;;;;;;;17.75;8.53;;;;;;;-5.05;59.59;100559.25;1721207;82;21150;-68
2020/12/09 02:20:08;;;;;;;16.73;8.35;;;;;;;-5.03;59.63;100565.30;1720322;82;21347;-67
2020/12/09 02:22:36;;;;;;;17.10;7.25;;;;;;;-5.03;59.53;100564.02;1718651;82;21262;-66
2020/12/09 02:25:04;;;;;;;14.25;8.03;;;;;;;-5.01;59.85;100543.81;1746744;82;21341;-66
2020/12/09 02:27:31;;;;;;;18.92;8.40;;;;;;;-5.00;59.96;100548.54;1727896;82;21186;-67
2020/12/09 02:29:58;;;;;;;20.43;8.80;;;;;;;-4.98;59.94;100556.72;1720245;82;21189;-66
2020/12/09 02:32:25;;;;;;;15.95;7.83;;;;;;;-4.94;59.62;100552.45;1720451;82;21808;-66
2020/12/09 02:34:53;;;;;;;20.10;8.98;;;;;;;-4.95;59.92;100545.56;1715108;82;21225;-66
2020/12/09 02:37:20;;;;;;;16.50;8.83;;;;;;;-4.93;59.62;100538.70;1709719;82;21342;-66
2020/12/09 02:39:47;;;;;;;16.93;7.53;;;;;;;-4.94;59.69;100535.69;1704358;82;21639;-66
2020/12/09 02:42:15;;;;;;;13.40;7.12;;;;;;;-4.90;59.99;100556.77;1726781;82;21143;-66
2020/12/09 02:44:44;;;;;;;14.55;7.58;;;;;;;-4.87;60.09;100545.60;1741452;82;21163;-67
2020/12/09 02:47:11;;;;;;;16.45;7.65;;;;;;;-4.85;60.05;100556.37;1723620;82;21822;-66
2020/12/09 02:49:38;;;;;;;15.13;7.65;;;;;;;-4.84;60.04;100548.22;1733659;82;21154;-66
2020/12/09 02:52:05;;;;;;;10.98;6.05;;;;;;;-4.81;60.02;100555.55;1714889;82;21221;-67
2020/12/09 02:54:32;;;;;;;16.40;7.95;;;;;;;-4.81;60.19;100558.13;1714954;82;21681;-67
2020/12/09 02:56:59;;;;;;;12.23;6.97;;;;;;;-4.76;59.94;100564.59;1717566;82;21320;-67
2020/12/09 02:59:26;;;;;;;15.55;7.90;;;;;;;-4.79;60.43;100570.60;1708126;82;21192;-67
2020/12/09 03:01:54;;;;;;;14.43;8.30;;;;;;;-4.73;60.34;100565.92;1723056;82;21190;-68
2020/12/09 03:04:21;;;;;;;13.25;7.00;;;;;;;-4.72;60.14;100566.33;1714864;84;21720;-67
2020/12/09 03:06:49;;;;;;;14.33;7.67;;;;;;;-4.68;60.18;100568.50;1732453;82;21603;-67
2020/12/09 03:09:16;;;;;;;14.58;7.50;;;;;;;-4.72;60.52;100566.33;1743909;82;21317;-67
2020/12/09 03:11:43;;;;;;;17.17;8.88;;;;;;;-4.77;60.29;100568.91;1711943;82;21163;-69
2020/12/09 03:14:10;;;;;;;16.90;7.72;;;;;;;-4.70;60.34;100572.81;1742787;82;21187;-68
2020/12/09 03:16:37;;;;;;;14.93;8.13;;;;;;;-4.68;60.30;100573.66;1722757;82;21751;-67
2020/12/09 03:19:05;;;;;;;18.48;7.90;;;;;;;-4.60;59.99;100570.71;1707140;82;21170;-66
2020/12/09 03:21:32;;;;;;;16.20;7.85;;;;;;;-4.59;60.12;100578.91;1702531;84;21144;-67
2020/12/09 03:23:59;;;;;;;18.10;7.90;;;;;;;-4.55;60.04;100568.13;1715047;82;21150;-68
2020/12/09 03:26:26;;;;;;;14.55;7.35;;;;;;;-4.55;60.29;100572.01;1714688;82;21328;-68
2020/12/09 03:28:54;;;;;;;13.48;7.97;;;;;;;-4.53;60.16;100571.59;1716640;82;21321;-67
2020/12/09 03:31:21;;;;;;;20.27;8.33;;;;;;;-4.53;60.17;100566.00;1699167;82;21179;-67
2020/12/09 03:33:48;;;;;;;17.80;8.70;;;;;;;-4.55;60.18;100567.73;1720813;82;21724;-66
2020/12/09 03:36:15;;;;;;;16.20;8.53;;;;;;;-4.50;60.23;100565.14;1756965;81;21131;-67
2020/12/09 03:38:42;;;;;;;15.10;7.62;;;;;;;-4.49;60.53;100557.84;1703736;81;21361;-67
2020/12/09 03:41:10;;;;;;;15.53;7.50;;;;;;;-4.52;60.56;100558.69;1733620;81;21154;-67
2020/12/09 03:43:37;;;;;;;17.45;7.72;;;;;;;-4.47;60.45;100550.98;1727921;83;21181;-67
2020/12/09 03:46:04;;;;;;;17.12;7.53;;;;;;;-4.49;60.72;100551.39;1709089;81;21582;-67
2020/12/09 03:48:31;;;;;;;16.35;8.70;;;;;;;-4.48;60.63;100550.09;1719263;81;21300;-67
2020/12/09 03:51:00;;;;;;;14.43;7.95;;;;;;;-4.47;60.91;100549.69;1721477;81;21154;-67
2020/12/09 03:53:27;;;;;;;18.23;8.13;;;;;;;-4.47;61.16;100546.66;1707245;81;21354;-67
2020/12/09 03:55:54;;;;;;;14.23;7.15;;;;;;;-4.47;61.08;100544.52;1726087;81;21133;-68
2020/12/09 03:58:21;;;;;;;13.75;6.65;;;;;;;-4.44;60.97;100545.81;1723023;81;21161;-68
2020/12/09 04:00:49;;;;;;;15.10;7.67;;;;;;;-4.43;61.04;100544.96;1728309;83;21789;-67
2020/12/09 04:03:16;;;;;;;15.18;7.70;;;;;;;-4.41;61.33;100544.96;1743676;81;21884;-67
2020/12/09 04:05:45;;;;;;;17.02;8.28;;;;;;;-4.41;61.33;100550.13;1730561;81;21145;-67
2020/12/09 04:08:13;;;;;;;17.85;8.68;;;;;;;-4.39;61.10;100547.13;1732127;81;21202;-67
2020/12/09 04:10:40;;;;;;;18.60;8.10;;;;;;;-4.37;61.01;100540.23;1731307;81;21752;-67
2020/12/09 04:13:07;;;;;;;18.23;8.23;;;;;;;-4.38;60.97;100538.53;1752138;81;21182;-67
2020/12/09 04:15:34;;;;;;;18.95;9.30;;;;;;;-4.32;61.30;100537.27;1736596;81;21185;-67
2020/12/09 04:18:01;;;;;;;19.80;8.85;;;;;;;-4.36;61.27;100541.97;1729582;83;21174;-67
2020/12/09 04:20:29;;;;;;;14.35;8.20;;;;;;;-4.35;61.22;100532.95;1736897;81;21162;-67
2020/12/09 04:22:56;;;;;;;16.77;8.23;;;;;;;-4.33;61.30;100536.83;1761135;81;21570;-66
2020/12/09 04:25:23;;;;;;;15.63;8.48;;;;;;;-4.35;61.55;100552.73;1744425;81;21181;-66
2020/12/09 04:27:50;;;;;;;19.82;9.25;;;;;;;-4.34;61.45;100546.72;1750133;81;21289;-67
2020/12/09 04:30:17;;;;;;;19.00;8.70;;;;;;;-4.34;61.57;100550.59;1730725;81;21312;-67
2020/12/09 04:32:45;;;;;;;15.50;7.92;;;;;;;-4.31;61.60;100547.59;1730993;81;21189;-67
2020/12/09 04:35:12;;;;;;;20.05;8.83;;;;;;;-4.28;61.71;100545.02;1730956;83;21701;-67
2020/12/09 04:37:39;;;;;;;19.80;8.63;;;;;;;-4.31;61.82;100539.85;1746140;81;21304;-67
2020/12/09 04:40:07;;;;;;;18.92;9.00;;;;;;;-4.27;61.99;100543.31;1744835;81;21278;-67
2020/12/09 04:42:34;;;;;;;16.97;7.83;;;;;;;-4.30;62.01;100546.75;1736527;81;21102;-67
2020/12/09 04:45:01;;;;;;;17.05;8.93;;;;;;;-4.27;62.16;100535.56;1731106;83;21355;-67
2020/12/09 04:47:33;;;;;;;16.97;8.15;;;;;;;-4.26;62.11;100542.42;1744189;81;21178;-67
2020/12/09 04:50:07;;;;;;;18.17;9.28;;;;;;;-4.26;62.23;100553.20;1719599;81;21167;-66
2020/12/09 04:52:48;;;;;;;18.05;8.43;;;;;;;-4.26;62.36;100547.59;1730335;83;21179;-65
2020/12/09 04:55:17;;;;;;;19.20;8.68;;;;;;;-4.28;62.41;100539.00;1707738;81;21162;-66
2020/12/09 04:58:02;;;;;;;19.07;8.13;;;;;;;-4.25;62.50;100548.03;1711461;81;21739;-66
2020/12/09 05:00:30;;;;;;;16.50;8.08;;;;;;;-4.23;62.72;100560.53;1694678;83;21371;-66
2020/12/09 05:03:15;;;;;;;17.20;8.88;;;;;;;-4.27;62.74;100551.06;1728258;83;21611;-66
2020/12/09 05:05:42;;;;;;;20.25;8.88;;;;;;;-4.24;62.87;100556.22;1730692;81;21177;-66
2020/12/09 05:08:19;;;;;;;19.52;8.45;;;;;;;-4.23;62.96;100559.24;1730890;83;21189;-66
2020/12/09 05:10:49;;;;;;;19.00;9.33;;;;;;;-4.19;63.08;100556.25;1665843;84;21295;-67
2020/12/09 05:13:23;;;;;;;24.52;10.15;;;;;;;-4.17;63.04;100556.69;1676741;84;21113;-66
2020/12/09 05:15:56;;;;;;;19.52;8.40;;;;;;;-4.16;63.13;100553.66;1682168;84;21175;-66
2020/12/09 05:18:42;;;;;;;16.93;9.03;;;;;;;-4.17;63.14;100547.64;1695617;83;21323;-66
2020/12/09 05:21:16;;;;;;;18.75;8.45;;;;;;;-4.13;62.96;100555.83;1695569;84;21202;-66
2020/12/09 05:23:48;;;;;;;19.05;8.90;;;;;;;-4.14;63.17;100558.42;1680127;84;21160;-65
2020/12/09 05:26:29;;;;;;;18.92;8.33;;;;;;;-4.16;63.37;100553.22;1683851;83;21200;-65
2020/12/09 05:29:12;;;;;;;15.38;8.80;;;;;;;-4.18;63.48;100559.23;1695480;82;21651;-66
2020/12/09 05:31:47;;;;;;;16.45;8.03;;;;;;;-4.22;63.68;100570.02;1709440;84;21333;-65
2020/12/09 05:34:29;;;;;;;18.92;9.30;;;;;;;-4.20;63.73;100574.73;1708279;82;21194;-66
2020/12/09 05:37:05;;;;;;;17.57;9.70;;;;;;;-4.18;63.79;100564.00;1712591;82;21648;-65
2020/12/09 05:39:33;;;;;;;17.87;8.75;;;;;;;-4.18;63.98;100566.98;1699839;82;21599;-66
2020/12/09 05:42:15;;;;;;;17.67;8.70;;;;;;;-4.14;63.96;100570.89;1696654;84;21171;-66
2020/12/09 05:44:42;;;;;;;17.82;9.08;;;;;;;-4.14;64.06;100569.59;1724977;82;21112;-66
2020/12/09 05:50:15;;;;;;;18.80;9.50;;;;;;;-4.10;64.39;100566.60;1814160;78;23028;-65
2020/12/09 05:52:42;;;;;;;19.87;9.30;;;;;;;-4.17;64.61;100571.30;1759066;81;21300;-66
2020/12/09 05:55:09;;;;;;;19.87;10.03;;;;;;;-4.17;64.69;100570.89;1746464;81;21762;-66
2020/12/09 05:57:36;;;;;;;22.93;9.33;;;;;;;-4.19;64.84;100570.02;1760285;81;21182;-66
2020/12/09 06:00:03;;;;;;;20.32;9.50;;;;;;;-4.17;64.92;100567.42;1696796;84;21156;-66
2020/12/09 06:02:32;;;;;;;23.85;9.80;;;;;;;-4.19;65.09;100563.55;1644592;84;21775;-66
2020/12/09 06:05:02;;;;;;;20.35;9.13;;;;;;;-4.19;65.36;100568.72;1722917;83;21166;-65
2020/12/09 06:07:31;;;;;;;19.50;9.88;;;;;;;-4.40;65.57;100538.95;1685368;84;21226;-65
2020/12/09 06:10:17;;;;;;;24.60;13.20;;;;;;;-4.19;65.69;100557.09;1709375;83;21297;-66
2020/12/09 06:13:01;;;;;;;19.50;9.45;;;;;;;-4.21;65.93;100566.55;1673997;84;21480;-65
2020/12/09 06:15:33;;;;;;;19.95;9.55;;;;;;;-4.21;65.93;100562.67;1697050;84;21185;-66
2020/12/09 06:18:11;;;;;;;19.05;9.70;;;;;;;-4.21;66.22;100571.72;1686578;84;21136;-65
2020/12/09 06:23:03;;;;;;;19.27;9.50;;;;;;;-4.19;66.62;100564.84;1755680;79;22277;-65
2020/12/09 06:25:30;;;;;;;20.82;10.10;;;;;;;-4.24;66.80;100570.88;1759842;80;21133;-65
2020/12/09 06:27:57;;;;;;;17.05;9.13;;;;;;;-4.22;66.76;100566.14;1750620;80;21190;-66
2020/12/09 06:30:27;;;;;;;18.00;9.25;;;;;;;-4.18;66.84;100574.73;1751744;80;21120;-64
2020/12/09 06:32:56;;;;;;;19.77;10.63;;;;;;;-4.18;66.91;100576.91;1752773;82;21167;-65
2020/12/09 06:35:24;;;;;;;21.23;8.85;;;;;;;-4.16;67.07;100576.47;1753941;80;21364;-66
2020/12/09 06:38:13;;;;;;;18.00;9.70;;;;;;;-4.11;67.14;100576.05;1727051;82;21627;-66
2020/12/09 06:40:59;;;;;;;17.87;9.75;;;;;;;-4.11;67.29;100570.03;1762426;80;21635;-66
2020/12/09 06:43:26;;;;;;;17.17;8.93;;;;;;;-4.14;67.43;100568.30;1740875;82;21150;-65
2020/12/09 06:45:54;;;;;;;20.95;11.03;;;;;;;-4.14;67.51;100568.30;1751019;82;21316;-65
2020/12/09 06:48:21;;;;;;;19.85;9.58;;;;;;;-4.19;67.99;100567.43;1751397;80;21681;-66
2020/12/09 06:50:48;;;;;;;23.35;10.40;;;;;;;-4.13;68.27;100565.28;1742711;80;21299;-66
2020/12/09 06:53:17;;;;;;;20.32;10.40;;;;;;;-4.21;68.53;100571.72;1744661;82;21611;-65
2020/12/09 06:55:47;;;;;;;19.30;9.95;;;;;;;-4.16;68.47;100570.45;1723235;83;21292;-66
2020/12/09 06:58:27;;;;;;;21.87;10.93;;;;;;;-4.19;68.66;100572.59;1724822;82;21159;-65
2020/12/09 07:01:07;;;;;;;17.55;9.43;;;;;;;-4.15;68.66;100562.70;1719193;82;21210;-64
2020/12/09 07:03:39;;;;;;;21.40;11.48;;;;;;;-4.13;68.76;100570.04;1726949;82;21807;-65
2020/12/09 07:06:20;;;;;;;24.18;10.90;;;;;;;-4.08;68.71;100580.81;1723956;83;21257;-65
2020/12/09 07:08:49;;;;;;;21.55;10.60;;;;;;;-4.07;69.02;100568.33;1699881;82;21170;-65
2020/12/09 07:11:16;;;;;;;21.73;10.38;;;;;;;-4.07;69.07;100583.83;1721537;81;21145;-65
2020/12/09 07:13:44;;;;;;;19.05;9.93;;;;;;;-4.05;69.08;100586.86;1720446;83;21300;-65
2020/12/09 07:16:12;;;;;;;26.15;12.45;;;;;;;-4.03;69.28;100586.85;1687579;83;21579;-65
2020/12/09 07:18:40;;;;;;;23.42;10.95;;;;;;;-4.01;69.25;100589.02;1719083;83;21159;-65
2020/12/09 07:21:08;;;;;;;22.48;11.15;;;;;;;-4.01;69.26;100581.27;1706084;82;21311;-65
2020/12/09 07:23:36;;;;;;;26.10;11.73;;;;;;;-3.99;69.50;100584.70;1710888;83;21309;-66
2020/12/09 07:26:03;;;;;;;21.42;10.90;;;;;;;-3.97;69.59;100588.16;1735908;82;21347;-66
2020/12/09 07:28:33;;;;;;;20.62;11.08;;;;;;;-3.93;69.67;100580.84;1717950;82;21302;-65
2020/12/09 07:31:07;;;;;;;17.87;9.35;;;;;;;-3.92;69.60;100581.29;1704071;82;21124;-66
2020/12/09 07:33:34;;;;;;;24.35;10.65;;;;;;;-3.88;69.65;100579.58;1728103;81;21100;-65
2020/12/09 07:36:08;;;;;;;23.65;10.58;;;;;;;-3.89;69.77;100576.11;1687821;84;21341;-66
2020/12/09 07:38:35;;;;;;;23.40;11.68;;;;;;;-3.90;69.83;100579.58;1718679;82;21168;-66
2020/12/09 07:41:03;;;;;;;21.62;11.05;;;;;;;-3.83;69.70;100575.28;1691332;84;21628;-66
2020/12/09 07:43:32;;;;;;;23.30;11.45;;;;;;;-3.81;70.01;100580.00;1658115;86;22497;-64
2020/12/09 07:46:01;;;;;;;22.85;11.20;;;;;;;-3.79;70.17;100577.00;1656663;86;21188;-66
2020/12/09 07:48:33;;;;;;;25.30;11.95;;;;;;;-3.80;70.16;100585.20;1667244;84;21327;-65
2020/12/09 07:51:00;;;;;;;22.35;9.85;;;;;;;-3.79;70.19;100589.48;1650714;86;21632;-66
2020/12/09 07:53:27;;;;;;;17.92;10.28;;;;;;;-3.76;70.39;100586.05;1650632;86;21158;-65
2020/12/09 07:56:00;;;;;;;24.95;11.63;;;;;;;-3.68;70.66;100587.38;1710750;82;21168;-65
2020/12/09 07:58:27;;;;;;;21.07;10.82;;;;;;;-3.64;70.35;100592.98;1698182;84;21175;-66
2020/12/09 08:00:55;;;;;;;24.77;11.95;;;;;;;-3.55;70.20;100583.94;1695556;82;21192;-65
2020/12/09 08:03:26;;;;;;;25.40;11.50;;;;;;;-3.54;70.28;100577.02;1701712;83;21884;-65
2020/12/09 08:05:55;;;;;;;22.93;11.45;;;;;;;-3.50;70.24;100578.78;1692524;82;21753;-66
2020/12/09 08:08:25;;;;;;;22.87;10.82;;;;;;;-3.48;70.30;100580.50;1706905;82;21178;-65
2020/12/09 08:10:53;;;;;;;18.82;10.60;;;;;;;-3.50;70.36;100575.75;1708506;82;21183;-64
2020/12/09 08:13:26;;;;;;;20.45;10.93;;;;;;;-3.41;70.23;100583.09;1715751;82;21170;-64
2020/12/09 08:16:10;;;;;;;21.37;11.25;;;;;;;-3.44;70.22;100584.37;1644550;86;21183;-64
2020/12/09 08:18:36;;;;;;;20.95;10.90;;;;;;;-3.42;70.11;100584.80;1667206;84;21381;-65
2020/12/09 08:21:04;;;;;;;22.45;12.23;;;;;;;-3.48;70.63;100580.91;1680201;84;21234;-66
2020/12/09 08:23:50;;;;;;;26.48;12.30;;;;;;;-3.46;70.51;100576.17;1663651;84;21178;-64
2020/12/09 08:26:29;;;;;;;22.37;11.43;;;;;;;-3.47;70.85;100578.77;1657045;84;21320;-66
2020/12/09 08:28:57;;;;;;;23.15;10.25;;;;;;;-3.40;70.77;100584.80;1676685;84;21320;-66
2020/12/09 08:31:24;;;;;;;31.97;11.93;;;;;;;-3.42;71.13;100585.25;1667654;84;21219;-68
2020/12/09 08:33:52;;;;;;;21.87;10.93;;;;;;;-3.40;71.35;100577.03;1649045;86;21315;-65
2020/12/09 08:36:22;;;;;;;19.60;10.90;;;;;;;-3.41;71.12;100585.69;1662199;86;21321;-64
2020/12/09 08:38:52;;;;;;;21.97;11.10;;;;;;;-3.34;71.01;100586.98;1662653;84;21194;-64
2020/12/09 08:41:30;;;;;;;49.18;19.73;;;;;;;-3.30;71.09;100585.23;1661613;84;21335;-64
2020/12/09 08:43:59;;;;;;;31.62;13.78;;;;;;;-3.28;71.24;100580.08;1675934;84;21586;-64
2020/12/09 08:46:28;;;;;;;33.63;14.98;;;;;;;-3.25;71.17;100580.06;1711704;82;21192;-65
2020/12/09 08:48:56;;;;;;;48.23;18.67;;;;;;;-3.19;71.03;100586.09;1690810;84;21148;-65
2020/12/09 08:51:32;;;;;;;33.58;15.98;;;;;;;-3.20;71.06;100583.51;1711943;82;21182;-65
2020/12/09 08:54:05;;;;;;;21.68;12.58;;;;;;;-3.17;70.99;100579.20;1681727;84;21637;-66
2020/12/09 08:56:34;;;;;;;26.80;12.85;;;;;;;-3.19;70.75;100579.63;1717720;82;21132;-65
2020/12/09 08:59:01;;;;;;;25.75;13.72;;;;;;;-3.15;70.89;100589.09;1717480;82;21336;-65
2020/12/09 09:01:35;;;;;;;25.23;13.45;;;;;;;-3.11;71.03;100589.12;1701502;84;21143;-65
2020/12/09 09:04:09;;;;;;;24.07;12.07;;;;;;;-3.20;70.80;100575.30;1710700;82;21135;-66
2020/12/09 09:06:37;;;;;;;23.20;12.33;;;;;;;-3.15;71.05;100568.40;1705360;84;21687;-65
2020/12/09 09:09:06;;;;;;;25.90;12.15;;;;;;;-3.10;71.27;100572.73;1685419;82;21163;-65
2020/12/09 09:11:34;;;;;;;23.60;12.05;;;;;;;-3.08;71.24;100560.22;1707288;84;21770;-65
2020/12/09 09:14:01;;;;;;;22.45;11.88;;;;;;;-3.02;70.87;100567.10;1721724;82;21162;-65
2020/12/09 09:16:29;;;;;;;22.15;11.80;;;;;;;-2.99;70.84;100556.31;1714230;84;21195;-67
2020/12/09 09:18:56;;;;;;;25.75;12.75;;;;;;;-2.94;70.73;100562.79;1718624;82;21331;-64
2020/12/09 09:21:24;;;;;;;22.73;12.95;;;;;;;-2.95;70.76;100562.36;1693972;84;21596;-66
2020/12/09 09:23:51;;;;;;;24.63;11.85;;;;;;;-2.94;70.86;100558.91;1684600;82;21344;-65
2020/12/09 09:26:18;;;;;;;23.73;12.73;;;;;;;-2.95;70.71;100562.36;1699964;82;21169;-64
2020/12/09 09:28:46;;;;;;;19.77;10.70;;;;;;;-2.98;70.45;100558.05;1698306;82;21139;-65
2020/12/09 09:31:15;;;;;;;24.55;11.93;;;;;;;-2.97;70.45;100552.02;1730546;82;21338;-64
2020/12/09 09:33:42;;;;;;;24.10;11.70;;;;;;;-2.98;70.41;100554.58;1744372;82;21214;-66
2020/12/09 09:36:10;;;;;;;24.47;12.90;;;;;;;-2.94;70.64;100553.73;1726759;81;21162;-65
2020/12/09 09:38:37;;;;;;;19.80;10.13;;;;;;;-2.84;70.40;100563.20;1713861;82;21630;-65
2020/12/09 09:41:04;;;;;;;21.68;11.35;;;;;;;-2.84;69.80;100559.31;1710049;82;21205;-66
2020/12/09 09:43:31;;;;;;;18.90;9.73;;;;;;;-2.77;69.34;100553.69;1705439;82;21329;-65
2020/12/09 09:46:01;;;;;;;19.20;9.43;;;;;;;-2.71;69.42;100559.27;1710885;82;21168;-65
2020/12/09 09:48:28;;;;;;;21.15;10.00;;;;;;;-2.71;69.40;100564.45;1709489;82;21552;-65
2020/12/09 09:50:55;;;;;;;21.05;11.00;;;;;;;-2.87;69.12;100532.13;1690495;82;21308;-65
2020/12/09 09:53:22;;;;;;;18.42;9.53;;;;;;;-2.71;68.98;100568.33;1708649;82;21130;-65
2020/12/09 09:55:49;;;;;;;19.55;10.53;;;;;;;-2.72;69.17;100561.45;1705404;84;21580;-64
2020/12/09 09:58:17;;;;;;;20.70;11.22;;;;;;;-2.74;69.10;100559.28;1682244;82;21188;-65
2020/12/09 10:00:44;;;;;;;21.30;9.43;;;;;;;-2.75;69.10;100558.85;1696674;84;21339;-65
2020/12/09 10:03:11;;;;;;;17.57;9.93;;;;;;;-2.71;69.29;100568.33;1709010;82;21317;-65
2020/12/09 10:05:39;;;;;;;19.02;10.43;;;;;;;-2.70;69.29;100560.99;1711871;82;21174;-64
2020/12/09 10:08:08;;;;;;;17.35;10.70;;;;;;;-2.75;69.14;100555.84;1702941;82;21151;-65
2020/12/09 10:10:35;;;;;;;25.52;13.22;;;;;;;-2.77;69.25;100552.83;1713779;82;21465;-64
2020/12/09 10:13:03;;;;;;;21.55;8.53;;;;;;;-2.72;69.05;100558.86;1698420;82;21305;-64
2020/12/09 10:15:30;;;;;;;24.15;10.82;;;;;;;-2.76;68.19;100546.77;1689402;82;21744;-65
2020/12/09 10:17:58;;;;;;;19.10;8.83;;;;;;;-2.83;68.51;100554.98;1731829;82;21150;-65
2020/12/09 10:20:25;;;;;;;17.65;9.05;;;;;;;-2.84;68.56;100545.08;1714979;84;21761;-64
2020/12/09 10:22:53;;;;;;;19.45;9.95;;;;;;;-2.98;69.15;100547.69;1718052;82;21166;-65
2020/12/09 10:25:23;;;;;;;22.58;11.80;;;;;;;-2.93;68.99;100545.52;1742022;82;21174;-65
2020/12/09 10:27:51;;;;;;;20.95;9.83;;;;;;;-2.89;69.06;100533.88;1710351;83;21167;-65
2020/12/09 10:30:18;;;;;;;22.13;10.98;;;;;;;-2.87;68.97;100541.19;1734003;82;21151;-65
2020/12/09 10:32:46;;;;;;;18.32;9.73;;;;;;;-2.78;68.55;100551.11;1732055;81;21147;-65
2020/12/09 10:35:16;;;;;;;21.10;10.28;;;;;;;-2.88;68.67;100542.05;1710791;82;21252;-66
2020/12/09 10:37:43;;;;;;;19.75;11.18;;;;;;;-2.84;68.69;100538.61;1720944;82;21166;-65
2020/12/09 10:40:11;;;;;;;22.25;10.40;;;;;;;-2.87;68.55;100541.19;1713662;82;21459;-65
2020/12/09 10:42:38;;;;;;;19.98;11.00;;;;;;;-2.81;68.59;100546.35;1716495;82;21102;-66
2020/12/09 10:45:06;;;;;;;20.40;9.98;;;;;;;-2.84;68.48;100542.48;1717047;82;21623;-65
2020/12/09 10:47:34;;;;;;;21.73;10.82;;;;;;;-2.84;68.58;100532.55;1715396;83;21191;-66
2020/12/09 10:50:04;;;;;;;20.75;11.05;;;;;;;-2.80;68.64;100538.14;1733133;82;21181;-66
2020/12/09 10:52:32;;;;;;;21.10;10.43;;;;;;;-2.77;68.87;100539.45;1689931;83;21321;-66
2020/12/09 10:55:00;;;;;;;20.50;11.28;;;;;;;-2.73;68.76;100542.89;1719917;82;21328;-64
2020/12/09 10:57:27;;;;;;;19.95;11.65;;;;;;;-2.74;68.64;100542.01;1707012;82;21745;-65
2020/12/09 10:59:55;;;;;;;22.73;11.70;;;;;;;-2.80;68.79;100544.20;1708942;83;22137;-65
2020/12/09 11:02:22;;;;;;;20.12;10.65;;;;;;;-2.82;68.61;100538.15;1717884;82;21123;-65
2020/12/09 11:04:49;;;;;;;20.77;10.98;;;;;;;-2.76;68.89;100534.70;1703970;83;21317;-66
2020/12/09 11:07:18;;;;;;;20.30;10.98;;;;;;;-2.70;68.71;100531.22;1710429;82;21320;-66
2020/12/09 11:09:46;;;;;;;22.17;12.13;;;;;;;-2.70;68.99;100538.98;1720823;82;21314;-66
2020/12/09 11:12:13;;;;;;;23.30;12.35;;;;;;;-2.62;68.98;100551.48;1711921;83;21292;-65
2020/12/09 11:14:40;;;;;;;25.75;13.48;;;;;;;-2.66;68.65;100540.27;1712363;82;21741;-65
2020/12/09 11:17:08;;;;;;;21.95;11.63;;;;;;;-2.61;68.44;100540.23;1701752;83;21682;-65
2020/12/09 11:19:35;;;;;;;24.02;11.15;;;;;;;-2.62;68.42;100542.42;1710244;82;21311;-66
2020/12/09 11:22:03;;;;;;;19.90;9.60;;;;;;;-2.62;68.08;100541.13;1720021;82;21178;-66
2020/12/09 11:24:31;;;;;;;23.05;11.28;;;;;;;-2.68;68.31;100533.38;1695747;83;21175;-66
2020/12/09 11:26:58;;;;;;;24.95;11.57;;;;;;;-2.71;68.58;100543.31;1712945;82;21137;-65
2020/12/09 11:29:26;;;;;;;21.42;10.03;;;;;;;-2.73;68.56;100532.09;1710185;84;21179;-65